Time;durP1;ratioP1;P1;durP2;ratioP2;P2;SDS_P1;SDS_P2;PMS_P1;PMS_P2;Temp;Humidity;BMP_temperature;BMP_pressure;BME280_temperature;BME280_humidity;BME280_pressure;Samples;Min_cycle;Max_cycle;Signal;HPM_P1;HPM_P2
2024/01/18 00:00:56;;;;;;;1.60;0.70;;;6.10;99.90;;;;;;5016405;28;20025;-81
2024/01/18 00:03:21;;;;;;;0.60;0.60;;;6.10;99.90;;;;;;5015777;28;21089;-82
2024/01/18 00:05:47;;;;;;;0.80;0.80;;;6.10;99.90;;;;;;4997030;28;20030;-82
2024/01/18 00:08:12;;;;;;;0.87;0.80;;;6.10;99.90;;;;;;5016351;28;20033;-82
2024/01/18 00:10:38;;;;;;;1.40;0.77;;;6.10;99.90;;;;;;5014511;28;20037;-82
2024/01/18 00:13:03;;;;;;;0.70;0.70;;;6.10;99.90;;;;;;5015200;28;20036;-82
2024/01/18 00:15:29;;;;;;;1.13;1.00;;;6.10;99.90;;;;;;5013569;28;20054;-82
2024/01/18 00:17:54;;;;;;;0.70;0.70;;;6.10;99.90;;;;;;5014534;28;20026;-82
2024/01/18 00:20:22;;;;;;;1.77;0.73;;;6.00;99.90;;;;;;5013746;28;20025;-82
2024/01/18 00:22:47;;;;;;;1.13;0.87;;;6.00;99.90;;;;;;5014918;28;21375;-82
2024/01/18 00:25:13;;;;;;;0.80;0.70;;;6.00;99.90;;;;;;5012786;28;20038;-82
2024/01/18 00:27:38;;;;;;;1.07;0.77;;;6.00;99.90;;;;;;5014459;28;20022;-83
2024/01/18 00:30:04;;;;;;;1.70;0.70;;;6.00;99.90;;;;;;5014980;28;20160;-82
2024/01/18 00:32:30;;;;;;;1.20;0.70;;;6.00;99.90;;;;;;5013377;28;20026;-83
2024/01/18 00:34:55;;;;;;;1.23;0.80;;;6.00;99.90;;;;;;5013886;28;20049;-82
2024/01/18 00:37:21;;;;;;;1.93;0.80;;;6.00;99.90;;;;;;5012640;28;20040;-82
2024/01/18 00:39:46;;;;;;;0.77;0.70;;;6.00;99.90;;;;;;5013897;28;20050;-82
2024/01/18 00:42:12;;;;;;;2.43;0.83;;;6.10;99.90;;;;;;5014323;28;20037;-83
2024/01/18 00:44:38;;;;;;;2.80;0.80;;;6.10;99.90;;;;;;5013339;28;20034;-82
2024/01/18 00:47:03;;;;;;;0.60;0.60;;;6.00;99.90;;;;;;5014375;28;20034;-83
2024/01/18 00:49:29;;;;;;;1.43;0.90;;;6.10;99.90;;;;;;5013635;28;20040;-84
2024/01/18 00:51:54;;;;;;;1.30;0.80;;;6.10;99.90;;;;;;5012839;28;20034;-83
2024/01/18 00:54:20;;;;;;;1.00;0.70;;;6.10;99.90;;;;;;5013842;28;20034;-82
2024/01/18 00:56:45;;;;;;;1.37;0.90;;;6.10;99.90;;;;;;5013667;28;20033;-82
2024/01/18 00:59:11;;;;;;;1.80;0.90;;;6.10;99.90;;;;;;5013423;28;20026;-82
2024/01/18 01:01:37;;;;;;;1.00;0.80;;;6.10;99.90;;;;;;5013131;28;20030;-82
2024/01/18 01:04:02;;;;;;;0.87;0.70;;;6.00;99.90;;;;;;4975143;28;1119068;-83
2024/01/18 01:06:28;;;;;;;0.70;0.70;;;6.00;99.90;;;;;;5013607;28;20985;-83
2024/01/18 01:08:53;;;;;;;1.07;0.80;;;6.00;99.90;;;;;;5014729;28;20034;-83
2024/01/18 01:11:19;;;;;;;0.87;0.77;;;6.00;99.90;;;;;;5012223;28;20022;-82
2024/01/18 01:13:45;;;;;;;0.70;0.70;;;6.00;99.90;;;;;;5013664;28;20033;-82
2024/01/18 01:16:11;;;;;;;1.93;0.60;;;6.00;99.90;;;;;;5014973;28;20046;-82
2024/01/18 01:18:37;;;;;;;0.70;0.70;;;6.00;99.90;;;;;;5012879;28;20053;-82
2024/01/18 01:21:03;;;;;;;1.30;0.70;;;6.00;99.90;;;;;;5013090;28;20034;-82
2024/01/18 01:23:29;;;;;;;0.70;0.70;;;6.00;99.90;;;;;;5014143;28;20041;-83
2024/01/18 01:25:55;;;;;;;0.80;0.50;;;6.00;99.90;;;;;;5014333;28;20061;-83
2024/01/18 01:28:21;;;;;;;1.03;0.60;;;6.00;99.90;;;;;;5014585;28;20038;-82
2024/01/18 01:30:46;;;;;;;0.70;0.67;;;6.00;99.90;;;;;;5013938;28;20033;-83
2024/01/18 01:33:12;;;;;;;0.73;0.60;;;5.90;99.90;;;;;;5009370;28;20030;-82
2024/01/18 01:35:37;;;;;;;0.70;0.70;;;5.90;99.90;;;;;;5014350;28;20084;-82
2024/01/18 01:38:03;;;;;;;0.53;0.53;;;5.90;99.90;;;;;;5013152;28;20098;-82
2024/01/18 01:40:29;;;;;;;1.10;0.50;;;5.80;99.90;;;;;;5014208;28;20040;-82
2024/01/18 01:42:54;;;;;;;0.50;0.50;;;5.80;99.90;;;;;;5014084;28;20052;-82
2024/01/18 01:45:20;;;;;;;0.70;0.60;;;5.80;99.90;;;;;;5014424;28;20045;-82
2024/01/18 01:47:45;;;;;;;0.50;0.50;;;5.80;99.90;;;;;;5014622;28;20032;-82
2024/01/18 01:50:11;;;;;;;0.60;0.60;;;5.70;99.90;;;;;;5014952;28;20061;-82
2024/01/18 01:52:39;;;;;;;0.50;0.50;;;5.70;99.90;;;;;;5016909;28;20030;-82
2024/01/18 01:55:07;;;;;;;1.20;0.70;;;5.70;99.90;;;;;;5015309;28;20042;-82
2024/01/18 01:57:33;;;;;;;1.30;0.60;;;5.70;99.90;;;;;;5016923;28;20049;-82
2024/01/18 01:59:59;;;;;;;0.50;0.50;;;5.80;99.90;;;;;;5016046;28;20109;-82
2024/01/18 02:02:25;;;;;;;0.60;0.60;;;5.80;99.90;;;;;;5017286;28;20131;-82
2024/01/18 02:04:52;;;;;;;3.13;0.70;;;5.80;99.90;;;;;;5015581;28;20101;-82
2024/01/18 02:07:19;;;;;;;0.50;0.50;;;5.80;99.90;;;;;;5015502;28;20034;-82
2024/01/18 02:09:46;;;;;;;0.80;0.67;;;5.80;99.90;;;;;;4996664;28;20161;-82
2024/01/18 02:12:13;;;;;;;0.60;0.60;;;5.80;99.90;;;;;;5014615;28;20046;-82
2024/01/18 02:14:39;;;;;;;0.40;0.40;;;5.80;99.90;;;;;;5015393;28;20137;-82
2024/01/18 02:17:06;;;;;;;0.50;0.50;;;5.80;99.90;;;;;;5014541;28;20900;-82
2024/01/18 02:19:31;;;;;;;1.07;0.60;;;5.80;99.90;;;;;;5015213;28;20090;-82
2024/01/18 02:22:01;;;;;;;0.60;0.60;;;5.70;99.90;;;;;;5016136;28;20062;-81
2024/01/18 02:24:40;;;;;;;1.60;0.50;;;5.70;99.90;;;;;;5014911;28;20038;-82
2024/01/18 02:27:05;;;;;;;0.50;0.50;;;5.70;99.90;;;;;;5014966;28;20029;-82
2024/01/18 02:29:32;;;;;;;0.70;0.60;;;5.70;99.90;;;;;;5014548;28;20026;-82
2024/01/18 02:31:57;;;;;;;0.40;0.40;;;5.80;99.90;;;;;;5015493;28;20202;-82
2024/01/18 02:34:23;;;;;;;0.50;0.50;;;5.80;99.90;;;;;;5015515;28;20052;-82
2024/01/18 02:36:49;;;;;;;0.60;0.60;;;5.70;99.90;;;;;;5015250;28;20033;-82
2024/01/18 02:39:14;;;;;;;0.33;0.33;;;5.70;99.90;;;;;;5017695;28;20113;-82
2024/01/18 02:41:41;;;;;;;0.73;0.60;;;5.70;99.90;;;;;;5019367;28;20112;-81
2024/01/18 02:44:07;;;;;;;0.60;0.60;;;5.70;99.90;;;;;;5019646;28;20034;-81
2024/01/18 02:46:33;;;;;;;0.67;0.50;;;5.70;99.90;;;;;;5020517;28;20034;-81
2024/01/18 02:49:00;;;;;;;0.60;0.50;;;5.70;99.90;;;;;;5021971;28;20056;-82
2024/01/18 02:51:26;;;;;;;0.57;0.50;;;5.70;99.90;;;;;;5022275;28;20036;-82
2024/01/18 02:53:52;;;;;;;0.57;0.57;;;5.80;99.90;;;;;;5022355;28;20022;-82
2024/01/18 02:56:17;;;;;;;1.80;0.50;;;5.80;99.90;;;;;;5017049;28;20030;-82
2024/01/18 02:58:43;;;;;;;0.50;0.50;;;5.80;99.90;;;;;;5018226;28;20030;-81
2024/01/18 03:01:11;;;;;;;0.50;0.50;;;5.90;99.90;;;;;;5000681;28;20033;-81
2024/01/18 03:03:36;;;;;;;0.50;0.50;;;5.90;99.90;;;;;;5019011;28;20029;-81
2024/01/18 03:06:02;;;;;;;0.50;0.50;;;5.90;99.90;;;;;;5018290;28;20647;-81
2024/01/18 03:08:28;;;;;;;0.80;0.80;;;5.90;99.90;;;;;;5017723;28;20504;-81
2024/01/18 03:10:54;;;;;;;0.50;0.50;;;5.90;99.90;;;;;;5018506;28;20045;-81
2024/01/18 03:13:19;;;;;;;0.87;0.73;;;5.90;99.90;;;;;;5019062;28;20034;-81
2024/01/18 03:15:45;;;;;;;0.57;0.50;;;5.90;99.90;;;;;;5018962;28;20512;-81
2024/01/18 03:18:10;;;;;;;0.50;0.50;;;5.90;99.90;;;;;;5017556;28;20026;-81
2024/01/18 03:20:36;;;;;;;1.13;0.40;;;5.80;99.90;;;;;;5018664;28;20565;-82
2024/01/18 03:23:02;;;;;;;0.50;0.50;;;5.90;99.90;;;;;;5018752;28;20076;-81
2024/01/18 03:25:27;;;;;;;0.60;0.60;;;5.90;99.90;;;;;;5019827;28;20064;-82
2024/01/18 03:27:53;;;;;;;1.13;0.47;;;6.00;99.90;;;;;;5017328;28;20030;-81
2024/01/18 03:30:19;;;;;;;0.50;0.50;;;6.00;99.90;;;;;;5001520;28;20148;-80
2024/01/18 03:32:45;;;;;;;0.90;0.70;;;6.00;99.90;;;;;;5018450;28;20041;-80
2024/01/18 03:35:10;;;;;;;0.47;0.47;;;6.00;99.90;;;;;;5018172;28;20038;-80
2024/01/18 03:37:36;;;;;;;1.80;0.60;;;6.00;99.90;;;;;;5017886;28;20030;-80
2024/01/18 03:40:02;;;;;;;0.50;0.50;;;6.00;99.90;;;;;;5017304;28;20107;-80
2024/01/18 03:42:27;;;;;;;0.60;0.60;;;6.00;99.90;;;;;;5017253;28;20105;-80
2024/01/18 03:44:53;;;;;;;0.40;0.40;;;6.00;99.90;;;;;;5019067;28;20087;-80
2024/01/18 03:47:18;;;;;;;0.47;0.47;;;6.00;99.90;;;;;;5017564;28;20109;-80
2024/01/18 03:49:44;;;;;;;0.50;0.50;;;6.00;99.90;;;;;;4999020;28;20072;-80
2024/01/18 03:52:10;;;;;;;1.20;0.50;;;5.90;99.90;;;;;;5018376;28;20096;-80
2024/01/18 03:54:36;;;;;;;0.57;0.53;;;6.00;99.90;;;;;;5018104;28;20030;-80
2024/01/18 03:57:01;;;;;;;1.17;0.60;;;6.00;99.90;;;;;;5017828;28;20056;-80
2024/01/18 03:59:27;;;;;;;0.50;0.50;;;6.00;99.90;;;;;;5017783;28;20030;-80
2024/01/18 04:01:52;;;;;;;1.40;0.50;;;6.00;99.90;;;;;;5018370;28;20048;-80
2024/01/18 04:04:18;;;;;;;0.40;0.40;;;6.00;99.90;;;;;;5018002;28;20026;-80
2024/01/18 04:06:43;;;;;;;0.47;0.47;;;6.00;99.90;;;;;;5017012;28;20029;-80
2024/01/18 04:09:09;;;;;;;0.40;0.40;;;6.00;99.90;;;;;;5019006;28;20464;-80
2024/01/18 04:11:34;;;;;;;1.73;0.50;;;6.10;99.90;;;;;;5017176;28;20026;-80
2024/01/18 04:14:00;;;;;;;0.60;0.60;;;6.10;99.90;;;;;;5017594;28;20049;-80
2024/01/18 04:16:26;;;;;;;0.50;0.50;;;6.00;99.90;;;;;;5018498;28;20037;-80
2024/01/18 04:18:51;;;;;;;0.50;0.50;;;6.10;99.90;;;;;;4999467;28;20576;-80
2024/01/18 04:21:17;;;;;;;0.57;0.57;;;6.00;99.90;;;;;;5018295;28;20018;-79
2024/01/18 04:23:42;;;;;;;1.00;0.67;;;6.00;99.90;;;;;;5017759;28;20026;-79
2024/01/18 04:26:08;;;;;;;0.97;0.90;;;6.00;99.90;;;;;;5016833;28;20045;-80
2024/01/18 04:28:34;;;;;;;0.70;0.70;;;5.90;99.90;;;;;;5017460;28;20029;-79
2024/01/18 04:30:59;;;;;;;0.97;0.70;;;6.00;99.90;;;;;;5017192;28;20022;-80
2024/01/18 04:33:25;;;;;;;0.80;0.73;;;6.00;99.90;;;;;;5017753;28;20461;-80
2024/01/18 04:35:50;;;;;;;1.57;0.80;;;5.90;99.90;;;;;;5017466;28;20029;-80
2024/01/18 04:38:16;;;;;;;1.10;0.80;;;5.90;99.90;;;;;;5015828;28;20879;-80
2024/01/18 04:40:43;;;;;;;0.93;0.70;;;5.90;99.90;;;;;;5016357;28;20053;-80
2024/01/18 04:43:09;;;;;;;1.43;0.80;;;5.90;99.90;;;;;;4999080;28;20092;-80
2024/01/18 04:45:34;;;;;;;1.07;0.80;;;6.00;99.90;;;;;;5016125;28;20026;-79
2024/01/18 04:48:00;;;;;;;0.90;0.70;;;6.00;99.90;;;;;;5015515;28;20022;-80
2024/01/18 04:50:26;;;;;;;1.63;0.60;;;6.00;99.90;;;;;;5016920;28;20149;-80
2024/01/18 04:52:52;;;;;;;0.80;0.60;;;5.90;99.90;;;;;;5016049;28;20034;-80
2024/01/18 04:55:17;;;;;;;0.97;0.70;;;5.90;99.90;;;;;;5015546;28;21121;-79
2024/01/18 04:57:43;;;;;;;2.13;0.60;;;5.90;99.90;;;;;;5017286;28;20061;-80
2024/01/18 05:00:10;;;;;;;0.80;0.70;;;5.90;99.90;;;;;;5014104;28;20084;-80
2024/01/18 05:02:42;;;;;;;0.90;0.90;;;5.90;99.90;;;;;;5016379;28;20034;-79
2024/01/18 05:05:08;;;;;;;1.33;1.00;;;5.90;99.90;;;;;;5014529;28;20034;-80
2024/01/18 05:07:35;;;;;;;1.47;1.00;;;5.90;99.90;;;;;;5015927;28;20053;-80
2024/01/18 05:10:04;;;;;;;1.77;1.10;;;5.90;99.90;;;;;;5013567;28;20034;-79
2024/01/18 05:12:29;;;;;;;1.40;0.93;;;5.80;99.90;;;;;;5014604;28;20033;-80
2024/01/18 05:14:55;;;;;;;2.40;0.90;;;5.80;99.90;;;;;;5010670;28;20041;-80
2024/01/18 05:17:21;;;;;;;1.60;0.80;;;5.70;99.90;;;;;;5013952;28;20042;-80
2024/01/18 05:19:47;;;;;;;1.90;0.97;;;5.70;99.90;;;;;;4996146;28;20034;-80
2024/01/18 05:22:12;;;;;;;2.10;1.33;;;5.70;99.90;;;;;;5013944;28;20025;-80
2024/01/18 05:24:39;;;;;;;1.90;1.03;;;5.70;99.90;;;;;;5014775;28;20057;-80
2024/01/18 05:27:06;;;;;;;1.63;0.90;;;5.70;99.90;;;;;;5012439;28;20029;-79
2024/01/18 05:29:32;;;;;;;1.10;0.83;;;5.70;99.90;;;;;;5013755;28;20045;-80
2024/01/18 05:31:57;;;;;;;1.70;0.80;;;5.80;99.90;;;;;;5010547;28;20022;-79
2024/01/18 05:34:23;;;;;;;1.20;0.87;;;5.70;99.90;;;;;;5013666;28;20036;-79
2024/01/18 05:36:48;;;;;;;1.50;0.80;;;5.70;99.90;;;;;;5013543;28;20050;-79
2024/01/18 05:39:14;;;;;;;1.50;0.80;;;5.70;99.90;;;;;;5011736;28;20033;-79
2024/01/18 05:41:40;;;;;;;1.37;0.80;;;5.70;99.90;;;;;;5015490;28;20041;-79
2024/01/18 05:44:05;;;;;;;2.13;1.07;;;5.70;99.90;;;;;;5014793;28;20049;-79
2024/01/18 05:46:31;;;;;;;2.47;1.30;;;5.70;99.90;;;;;;4997147;28;20038;-79
2024/01/18 05:48:56;;;;;;;2.30;1.53;;;5.70;99.90;;;;;;5013420;28;20028;-79
2024/01/18 05:51:22;;;;;;;5.17;1.67;;;5.70;99.90;;;;;;5015191;28;20567;-78
2024/01/18 05:53:47;;;;;;;2.30;1.40;;;5.70;99.90;;;;;;5014403;28;20029;-79
2024/01/18 05:56:13;;;;;;;3.10;1.40;;;5.60;99.90;;;;;;5013843;28;20555;-78
2024/01/18 05:58:39;;;;;;;3.20;1.30;;;5.60;99.90;;;;;;5007147;28;20029;-78
2024/01/18 06:01:05;;;;;;;1.33;0.90;;;5.60;99.90;;;;;;5009387;28;20164;-79
2024/01/18 06:03:30;;;;;;;1.53;0.73;;;5.50;99.90;;;;;;5012181;28;20054;-78
2024/01/18 06:05:58;;;;;;;1.33;0.90;;;5.50;99.90;;;;;;5012258;28;20049;-78
2024/01/18 06:08:24;;;;;;;2.20;0.70;;;5.50;99.90;;;;;;5012906;28;20037;-79
2024/01/18 06:10:49;;;;;;;1.63;1.00;;;5.40;99.90;;;;;;5013087;28;20029;-78
2024/01/18 06:13:15;;;;;;;2.20;1.00;;;5.40;99.90;;;;;;5011534;28;20045;-78
2024/01/18 06:15:41;;;;;;;1.97;0.67;;;5.30;99.90;;;;;;5011698;28;20046;-78
2024/01/18 06:18:06;;;;;;;4.50;0.80;;;5.30;99.90;;;;;;5013022;28;20037;-79
2024/01/18 06:20:32;;;;;;;1.97;1.07;;;5.30;99.90;;;;;;5016995;28;20072;-79
2024/01/18 06:23:01;;;;;;;1.00;0.70;;;5.30;99.90;;;;;;4998651;28;20045;-78
2024/01/18 06:25:27;;;;;;;1.03;0.77;;;5.30;99.90;;;;;;5015968;28;20034;-79
2024/01/18 06:27:53;;;;;;;0.80;0.80;;;5.30;99.90;;;;;;5014658;28;20021;-78
2024/01/18 06:30:18;;;;;;;4.20;1.83;;;5.30;99.90;;;;;;5017515;28;20041;-79
2024/01/18 06:32:44;;;;;;;2.23;0.80;;;5.30;99.90;;;;;;5016313;28;20597;-78
2024/01/18 06:35:11;;;;;;;1.07;0.80;;;5.30;99.90;;;;;;5015943;28;20132;-79
2024/01/18 06:37:37;;;;;;;3.27;0.90;;;5.40;99.90;;;;;;5019138;28;20450;-79
2024/01/18 06:40:03;;;;;;;3.80;1.33;;;5.40;99.90;;;;;;5001209;28;20667;-78
2024/01/18 06:42:29;;;;;;;2.47;1.07;;;5.40;99.90;;;;;;5020016;28;20488;-79
2024/01/18 06:44:54;;;;;;;2.73;0.90;;;5.40;99.90;;;;;;5020890;28;20026;-79
2024/01/18 06:47:20;;;;;;;1.47;1.10;;;5.40;99.90;;;;;;5015487;28;20060;-79
2024/01/18 06:49:46;;;;;;;1.33;1.00;;;5.40;99.90;;;;;;5016248;28;20058;-79
2024/01/18 06:52:11;;;;;;;3.90;1.80;;;5.40;99.90;;;;;;5017760;28;20041;-79
2024/01/18 06:54:37;;;;;;;1.10;0.90;;;5.40;99.90;;;;;;5014830;28;20045;-80
2024/01/18 06:57:03;;;;;;;1.43;0.80;;;5.40;99.90;;;;;;5014644;28;20511;-79
2024/01/18 06:59:29;;;;;;;0.90;0.77;;;5.40;99.90;;;;;;5015011;28;20033;-79
2024/01/18 07:01:55;;;;;;;1.83;0.80;;;5.40;99.90;;;;;;5016327;28;20033;-79
2024/01/18 07:04:21;;;;;;;2.27;0.70;;;5.40;99.90;;;;;;5005626;28;20068;-77
2024/01/18 07:06:47;;;;;;;1.07;0.73;;;5.40;99.90;;;;;;5002670;28;20025;-81
2024/01/18 07:09:12;;;;;;;1.13;0.80;;;5.40;99.90;;;;;;5008682;28;20612;-79
2024/01/18 07:11:38;;;;;;;2.93;0.90;;;5.40;99.90;;;;;;5013027;28;20538;-79
2024/01/18 07:14:04;;;;;;;1.73;0.90;;;5.40;99.90;;;;;;5012597;28;20038;-80
2024/01/18 07:16:29;;;;;;;1.70;0.87;;;5.30;99.90;;;;;;5012341;28;20179;-81
2024/01/18 07:18:55;;;;;;;1.90;0.97;;;5.30;99.90;;;;;;5010000;28;20059;-80
2024/01/18 07:21:20;;;;;;;1.10;1.00;;;5.30;99.90;;;;;;5010394;28;21461;-81
2024/01/18 07:23:46;;;;;;;1.23;0.97;;;5.40;99.90;;;;;;4995007;28;20408;-80
2024/01/18 07:26:12;;;;;;;1.43;0.90;;;5.30;99.90;;;;;;5010883;28;20037;-81
2024/01/18 07:28:38;;;;;;;1.97;1.07;;;5.30;99.90;;;;;;4990498;28;20026;-81
2024/01/18 07:31:03;;;;;;;1.57;1.10;;;5.30;99.90;;;;;;5011252;28;20026;-81
2024/01/18 07:33:29;;;;;;;2.60;1.10;;;5.30;99.90;;;;;;5012134;28;20037;-81
2024/01/18 07:35:54;;;;;;;1.87;1.30;;;5.30;99.90;;;;;;5010413;28;20053;-81
2024/01/18 07:38:20;;;;;;;1.50;1.17;;;5.30;99.90;;;;;;5009491;28;20033;-80
2024/01/18 07:40:45;;;;;;;2.23;1.23;;;5.30;99.90;;;;;;5010922;28;20030;-80
2024/01/18 07:43:11;;;;;;;2.33;1.20;;;5.30;99.90;;;;;;5001009;28;20036;-85
2024/01/18 07:45:36;;;;;;;1.97;1.40;;;5.20;99.90;;;;;;5005035;28;20579;-82
2024/01/18 07:48:02;;;;;;;3.60;1.23;;;5.20;99.90;;;;;;5006202;28;20061;-80
2024/01/18 07:50:28;;;;;;;1.93;1.00;;;5.20;99.90;;;;;;5013232;28;20041;-78
2024/01/18 07:52:53;;;;;;;2.33;1.20;;;5.20;99.90;;;;;;5012011;28;20034;-82
2024/01/18 07:55:20;;;;;;;1.53;1.00;;;5.20;99.90;;;;;;5012333;28;20049;-80
2024/01/18 07:57:46;;;;;;;5.87;2.37;;;5.30;99.90;;;;;;5013086;28;20049;-80
2024/01/18 08:00:12;;;;;;;6.10;2.63;;;5.30;99.90;;;;;;5013004;28;20021;-79
2024/01/18 08:02:38;;;;;;;8.10;2.13;;;5.30;99.90;;;;;;5014624;28;20038;-80
2024/01/18 08:05:05;;;;;;;5.00;2.23;;;5.30;99.90;;;;;;5012179;28;20095;-80
2024/01/18 08:07:30;;;;;;;4.57;2.30;;;5.40;99.90;;;;;;5014213;28;20044;-80
2024/01/18 08:09:56;;;;;;;2.60;1.40;;;5.30;99.90;;;;;;5012341;28;20089;-80
2024/01/18 08:12:21;;;;;;;1.97;1.20;;;5.40;99.90;;;;;;5012177;28;20072;-80
2024/01/18 08:14:47;;;;;;;2.17;1.00;;;5.40;99.90;;;;;;5012605;28;20037;-81
2024/01/18 08:17:12;;;;;;;3.17;1.10;;;5.40;99.90;;;;;;5013009;28;20029;-80
2024/01/18 08:19:39;;;;;;;2.70;1.40;;;5.40;99.90;;;;;;5012963;28;21501;-79
2024/01/18 08:22:06;;;;;;;2.40;1.53;;;5.40;99.90;;;;;;5011967;28;20298;-79
2024/01/18 08:24:31;;;;;;;1.83;1.10;;;5.50;99.90;;;;;;5010576;28;20507;-79
2024/01/18 08:26:57;;;;;;;3.17;1.10;;;5.50;99.90;;;;;;5011253;28;20030;-80
2024/01/18 08:29:22;;;;;;;3.50;1.00;;;5.50;99.90;;;;;;5011452;28;20030;-81
2024/01/18 08:31:48;;;;;;;1.77;1.13;;;5.60;99.90;;;;;;5013600;28;20061;-80
2024/01/18 08:34:13;;;;;;;2.83;1.30;;;5.60;99.90;;;;;;5012880;28;20497;-79
2024/01/18 08:36:39;;;;;;;2.37;1.17;;;5.70;99.90;;;;;;5013057;28;20042;-80
2024/01/18 08:39:04;;;;;;;2.77;1.30;;;5.70;99.90;;;;;;4994267;28;20038;-80
2024/01/18 08:41:30;;;;;;;4.97;1.20;;;5.80;99.90;;;;;;5012818;28;20215;-80
2024/01/18 08:43:56;;;;;;;2.67;1.73;;;5.80;99.90;;;;;;5014098;28;20041;-80
2024/01/18 08:46:22;;;;;;;1.97;1.40;;;5.90;99.90;;;;;;5012114;28;20053;-80
2024/01/18 08:48:48;;;;;;;2.03;1.40;;;6.00;99.90;;;;;;5010369;28;20046;-81
2024/01/18 08:51:13;;;;;;;2.10;1.20;;;6.00;99.90;;;;;;5004912;28;21022;-79
2024/01/18 08:53:40;;;;;;;2.50;1.30;;;6.10;99.90;;;;;;5010623;28;20026;-80
2024/01/18 08:56:06;;;;;;;1.87;1.10;;;6.20;99.90;;;;;;5013444;28;20040;-79
2024/01/18 08:58:32;;;;;;;1.87;1.20;;;6.30;99.90;;;;;;5007552;28;20094;-79
2024/01/18 09:00:58;;;;;;;1.40;1.13;;;6.40;99.90;;;;;;5001026;28;20126;-80
2024/01/18 09:03:23;;;;;;;3.37;1.30;;;6.50;99.90;;;;;;5002006;28;20029;-80
2024/01/18 09:05:50;;;;;;;1.67;1.10;;;6.60;99.90;;;;;;5002577;28;20040;-80
2024/01/18 09:08:15;;;;;;;2.03;1.17;;;6.70;99.90;;;;;;5000222;28;20030;-77
2024/01/18 09:10:41;;;;;;;1.43;0.90;;;6.80;99.90;;;;;;4999993;28;20030;-78
2024/01/18 09:13:07;;;;;;;3.13;1.20;;;7.00;99.90;;;;;;4999890;28;20042;-78
2024/01/18 09:15:34;;;;;;;1.40;0.87;;;7.20;99.90;;;;;;4999170;28;20037;-77
2024/01/18 09:18:00;;;;;;;1.67;1.10;;;7.40;99.90;;;;;;4995069;28;20029;-77
2024/01/18 09:20:26;;;;;;;1.70;1.00;;;7.60;99.90;;;;;;4997505;28;20037;-77
2024/01/18 09:22:52;;;;;;;0.63;0.60;;;7.80;99.90;;;;;;4998610;28;20512;-77
2024/01/18 09:25:17;;;;;;;0.90;0.70;;;8.10;99.90;;;;;;4996190;28;20030;-77
2024/01/18 09:27:43;;;;;;;1.87;0.90;;;8.30;99.90;;;;;;4997301;28;20079;-77
2024/01/18 09:30:10;;;;;;;1.40;0.60;;;8.40;99.90;;;;;;4996413;28;20018;-77
2024/01/18 09:32:36;;;;;;;1.00;0.77;;;8.50;99.90;;;;;;4998518;28;20033;-77
2024/01/18 09:35:05;;;;;;;1.27;0.70;;;8.50;99.90;;;;;;4997297;28;20030;-77
2024/01/18 09:37:31;;;;;;;2.40;0.80;;;8.50;99.90;;;;;;4997306;28;20029;-76
2024/01/18 09:39:57;;;;;;;0.90;0.70;;;8.60;99.90;;;;;;4996370;28;20026;-76
2024/01/18 09:42:28;;;;;;;1.33;0.80;;;8.70;99.90;;;;;;4999456;28;20034;-77
2024/01/18 09:45:00;;;;;;;0.73;0.63;;;8.80;99.90;;;;;;4999462;28;20030;-76
2024/01/18 09:47:25;;;;;;;1.17;0.80;;;8.80;99.90;;;;;;4995584;28;20081;-76
2024/01/18 09:49:52;;;;;;;0.87;0.70;;;8.90;99.90;;;;;;4999607;28;20152;-76
2024/01/18 09:52:18;;;;;;;1.30;0.80;;;8.80;99.90;;;;;;5001902;28;20018;-76
2024/01/18 09:54:44;;;;;;;0.97;0.77;;;8.80;99.90;;;;;;5003811;28;20042;-77
2024/01/18 09:57:13;;;;;;;1.03;0.73;;;8.80;99.90;;;;;;5003708;28;20437;-80
2024/01/18 09:59:42;;;;;;;1.23;0.80;;;8.80;99.90;;;;;;5013519;28;20448;-80
2024/01/18 10:02:08;;;;;;;0.90;0.70;;;8.80;99.90;;;;;;5013449;28;20118;-80
2024/01/18 10:04:35;;;;;;;0.97;0.80;;;8.80;99.90;;;;;;5013105;28;20105;-80
2024/01/18 10:07:00;;;;;;;0.90;0.70;;;8.80;99.90;;;;;;5012978;28;20085;-80
2024/01/18 10:09:26;;;;;;;1.00;0.87;;;8.80;99.90;;;;;;5011834;28;20145;-80
2024/01/18 10:11:52;;;;;;;0.77;0.70;;;8.80;99.90;;;;;;5016340;28;20080;-80
2024/01/18 10:14:37;;;;;;;1.13;0.60;;;8.80;99.90;;;;;;5015061;28;20021;-80
2024/01/18 10:17:03;;;;;;;0.73;0.50;;;8.80;99.90;;;;;;5010069;28;21468;-80
2024/01/18 10:19:28;;;;;;;0.70;0.60;;;8.90;99.90;;;;;;5009982;28;20280;-81
2024/01/18 10:21:54;;;;;;;0.80;0.80;;;8.90;99.90;;;;;;5013433;28;20030;-82
2024/01/18 10:24:19;;;;;;;1.60;1.00;;;9.00;99.90;;;;;;4995691;28;20048;-81
2024/01/18 10:26:45;;;;;;;0.80;0.70;;;9.00;99.90;;;;;;5016440;28;20113;-82
2024/01/18 10:29:11;;;;;;;1.53;0.90;;;9.00;99.90;;;;;;5015222;28;20026;-81
2024/01/18 10:31:41;;;;;;;1.33;0.80;;;9.00;99.90;;;;;;5017747;28;20931;-81
2024/01/18 10:34:07;;;;;;;2.73;0.80;;;9.00;99.90;;;;;;5014549;28;20032;-81
2024/01/18 10:36:33;;;;;;;1.77;0.80;;;9.00;99.90;;;;;;5012777;28;20041;-81
2024/01/18 10:39:13;;;;;;;1.40;0.77;;;9.00;99.90;;;;;;5011677;28;20030;-80
2024/01/18 10:41:40;;;;;;;0.90;0.70;;;9.00;99.90;;;;;;5014637;28;20060;-80
2024/01/18 10:44:05;;;;;;;1.70;1.13;;;9.00;99.90;;;;;;5013689;28;20346;-80
2024/01/18 10:46:31;;;;;;;2.33;1.03;;;9.00;99.90;;;;;;5011288;28;20038;-80
2024/01/18 10:48:57;;;;;;;2.33;1.30;;;9.10;99.90;;;;;;5009779;28;20053;-80
2024/01/18 10:51:24;;;;;;;1.23;1.00;;;9.10;99.90;;;;;;5009174;28;20030;-80
2024/01/18 10:53:51;;;;;;;2.00;1.30;;;9.10;99.90;;;;;;5009547;28;20041;-80
2024/01/18 10:56:18;;;;;;;1.83;1.20;;;9.10;99.90;;;;;;5011773;28;20225;-80
2024/01/18 10:58:44;;;;;;;1.97;1.40;;;9.10;99.90;;;;;;5002941;28;20534;-80
2024/01/18 11:01:10;;;;;;;5.70;1.70;;;9.10;99.90;;;;;;5010416;28;20029;-80
2024/01/18 11:03:37;;;;;;;3.57;1.60;;;9.20;99.90;;;;;;5013150;28;20053;-80
2024/01/18 11:06:09;;;;;;;1.27;0.90;;;9.20;99.90;;;;;;4994824;28;20040;-80
2024/01/18 11:08:36;;;;;;;1.43;0.80;;;9.20;99.90;;;;;;5010206;28;20121;-80
2024/01/18 11:11:02;;;;;;;1.87;0.87;;;9.20;99.90;;;;;;5012506;28;20029;-80
2024/01/18 11:13:28;;;;;;;0.83;0.77;;;9.20;99.90;;;;;;5008826;28;20445;-80
2024/01/18 11:15:54;;;;;;;1.47;0.80;;;9.20;99.90;;;;;;5011410;28;20133;-79
2024/01/18 11:18:21;;;;;;;1.97;1.10;;;9.20;99.90;;;;;;5009502;28;20018;-79
2024/01/18 11:20:59;;;;;;;2.10;1.30;;;9.30;99.90;;;;;;5010936;28;20033;-80
2024/01/18 11:23:33;;;;;;;10.73;6.23;;;9.40;99.90;;;;;;4992318;28;20121;-80
2024/01/18 11:25:58;;;;;;;1.53;1.10;;;9.40;99.90;;;;;;5010925;28;20017;-80
2024/01/18 11:28:28;;;;;;;2.50;1.20;;;9.50;99.90;;;;;;5012565;28;20036;-79
2024/01/18 11:30:53;;;;;;;1.00;0.60;;;9.60;99.90;;;;;;5013763;28;20026;-79
2024/01/18 11:33:22;;;;;;;0.80;0.70;;;9.60;99.90;;;;;;4996402;28;20037;-79
2024/01/18 11:35:50;;;;;;;1.43;0.60;;;9.70;99.90;;;;;;5012150;28;20097;-80
2024/01/18 11:38:45;;;;;;;1.27;0.60;;;9.80;99.90;;;;;;5002606;28;20032;-79
2024/01/18 11:41:21;;;;;;;0.50;0.50;;;10.10;99.90;;;;;;5008100;28;20096;-79
2024/01/18 11:43:58;;;;;;;0.93;0.50;;;10.20;99.90;;;;;;5005257;28;20033;-79
2024/01/18 11:46:39;;;;;;;0.67;0.60;;;10.30;99.90;;;;;;5001519;28;20030;-79
2024/01/18 11:49:05;;;;;;;0.90;0.60;;;10.40;99.90;;;;;;5008379;28;20069;-79
2024/01/18 11:51:31;;;;;;;1.50;0.57;;;10.50;99.90;;;;;;5008451;28;20053;-80
2024/01/18 11:54:01;;;;;;;0.63;0.50;;;10.60;99.90;;;;;;5007613;28;20060;-80
2024/01/18 11:56:28;;;;;;;0.43;0.40;;;10.70;99.90;;;;;;4990332;28;20054;-80
2024/01/18 11:58:55;;;;;;;0.50;0.50;;;10.80;99.90;;;;;;4992010;28;21046;-80
2024/01/18 12:01:20;;;;;;;1.57;0.60;;;10.90;99.90;;;;;;5010797;28;20084;-80
2024/01/18 12:03:49;;;;;;;1.10;0.60;;;11.10;99.90;;;;;;5009690;28;20100;-80
2024/01/18 12:06:16;;;;;;;2.07;0.50;;;11.10;99.90;;;;;;5008025;28;20773;-80
2024/01/18 12:08:44;;;;;;;0.50;0.40;;;11.10;99.90;;;;;;5005747;28;20029;-79
2024/01/18 12:11:10;;;;;;;0.53;0.40;;;11.10;99.90;;;;;;5008792;28;20033;-80
2024/01/18 12:13:37;;;;;;;1.40;0.40;;;11.20;99.90;;;;;;5010609;28;20069;-79
2024/01/18 12:16:04;;;;;;;0.40;0.40;;;11.20;99.90;;;;;;5010621;28;20037;-80
2024/01/18 12:18:43;;;;;;;0.50;0.50;;;11.10;99.90;;;;;;5010512;28;20026;-79
2024/01/18 12:21:09;;;;;;;0.40;0.40;;;11.20;99.90;;;;;;4992782;28;20184;-80
2024/01/18 12:23:35;;;;;;;0.40;0.40;;;11.20;99.90;;;;;;5004722;28;20367;-80
2024/01/18 12:26:02;;;;;;;0.30;0.30;;;11.20;99.90;;;;;;5008606;28;20105;-79
2024/01/18 12:28:27;;;;;;;2.43;0.70;;;11.20;99.90;;;;;;5006072;28;20029;-79
2024/01/18 12:31:00;;;;;;;0.40;0.40;;;11.10;99.90;;;;;;5009961;28;20041;-79
2024/01/18 12:33:27;;;;;;;0.43;0.40;;;11.20;99.90;;;;;;5011620;28;20033;-80
2024/01/18 12:35:53;;;;;;;0.70;0.40;;;11.00;99.90;;;;;;5012315;28;20172;-80
2024/01/18 12:38:19;;;;;;;0.40;0.40;;;10.90;99.90;;;;;;5008458;28;20049;-80
2024/01/18 12:40:44;;;;;;;0.60;0.53;;;10.90;99.90;;;;;;5006194;28;20128;-80
2024/01/18 12:43:10;;;;;;;0.37;0.37;;;10.90;99.90;;;;;;5004684;28;20025;-80
2024/01/18 12:45:36;;;;;;;0.50;0.40;;;10.80;99.90;;;;;;5004220;28;21422;-80
2024/01/18 12:48:01;;;;;;;0.60;0.40;;;10.70;99.90;;;;;;5006881;28;20026;-80
2024/01/18 12:50:27;;;;;;;0.40;0.40;;;10.70;99.90;;;;;;4990688;28;20026;-80